Odem, Texas
Current Conditions -  °F | °C
As of 6:51 AM on Saturday 01 Nov 2014 (Local Time) from KCRP Reporting Station
Clear Clear  
Wind Chill: 55°   Ceiling: Unl
Heat Index: 55°   Visibility: 10mi
Dew Point: 47°   Wind: 13mph
Humidity: 74%   Direction: 20°NNE
Pressure: 30.3"   Gusts: NA
Location:  27.95°N, 97.58°W
Report Text: KCRP 011151Z 02011KT 10SM CLR 13/08 A3030 RMK AO2 SLP261 70269 T01280083 10172 20128 53012
Loading
Personal Weather Stations






























Interactive Weather Map
Tropical Storm Tracking
New forecast layout! Learn more

10-Day Weather Forecast

Advertisements
Track Severe Weather on mobile